Time;durP1;ratioP1;P1;durP2;ratioP2;P2;SDS_P1;SDS_P2;PMS_P1;PMS_P2;Temp;Humidity;BMP_temperature;BMP_pressure;BME280_temperature;BME280_humidity;BME280_pressure;Samples;Min_cycle;Max_cycle;Signal;HPM_P1;HPM_P2
2023/07/05 00:01:13;;;;;;;4.78;3.50;;;16.90;99.90;;;;;;5019291;28;20023;-77
2023/07/05 00:03:40;;;;;;;3.03;2.50;;;16.80;99.90;;;;;;5017715;28;20093;-78
2023/07/05 00:06:06;;;;;;;2.90;2.47;;;16.70;99.90;;;;;;5017821;28;20049;-79
2023/07/05 00:08:33;;;;;;;3.60;2.45;;;16.70;99.90;;;;;;5018409;28;20364;-79
2023/07/05 00:11:07;;;;;;;4.45;3.03;;;16.70;99.90;;;;;;5017568;28;20022;-78
2023/07/05 00:13:35;;;;;;;5.85;2.58;;;16.60;99.90;;;;;;5017656;28;20510;-79
2023/07/05 00:16:02;;;;;;;3.38;2.38;;;16.70;99.90;;;;;;5016422;28;20470;-78
2023/07/05 00:18:28;;;;;;;3.53;2.55;;;16.60;99.90;;;;;;5017450;28;20112;-78
2023/07/05 00:21:00;;;;;;;3.15;2.28;;;16.60;99.90;;;;;;5017599;28;20029;-78
2023/07/05 00:23:25;;;;;;;3.10;2.63;;;16.60;99.90;;;;;;5016215;28;20395;-79
2023/07/05 00:25:51;;;;;;;6.15;2.70;;;16.50;99.90;;;;;;5015999;28;20021;-78
2023/07/05 00:28:16;;;;;;;4.07;2.60;;;16.50;99.90;;;;;;5015627;28;20034;-78
2023/07/05 00:30:43;;;;;;;5.10;3.40;;;16.50;99.90;;;;;;5016872;28;20061;-78
2023/07/05 00:33:09;;;;;;;2.88;2.25;;;16.50;99.90;;;;;;5015742;28;20029;-78
2023/07/05 00:35:34;;;;;;;3.90;2.45;;;16.50;99.90;;;;;;5017116;28;20101;-78
2023/07/05 00:38:00;;;;;;;3.58;2.45;;;16.50;99.90;;;;;;5016683;28;20050;-78
2023/07/05 00:40:26;;;;;;;3.85;2.53;;;16.40;99.90;;;;;;5016244;28;20522;-78
2023/07/05 00:42:51;;;;;;;5.05;2.50;;;16.40;99.90;;;;;;5015886;28;20026;-78
2023/07/05 00:45:20;;;;;;;4.05;2.67;;;16.30;99.90;;;;;;5017054;28;20490;-79
2023/07/05 00:47:47;;;;;;;3.65;2.47;;;16.30;99.90;;;;;;5015934;28;20026;-79
2023/07/05 00:50:37;;;;;;;5.78;2.40;;;16.20;99.90;;;;;;5015419;28;20026;-78
2023/07/05 00:53:04;;;;;;;3.72;2.42;;;16.20;99.90;;;;;;5015370;28;20022;-79
2023/07/05 00:55:30;;;;;;;4.00;2.60;;;16.20;99.90;;;;;;5016777;28;20036;-78
2023/07/05 00:57:55;;;;;;;5.35;2.17;;;16.10;99.90;;;;;;5015047;28;20097;-79
2023/07/05 01:00:22;;;;;;;4.55;3.33;;;16.10;99.90;;;;;;5013900;28;20040;-78
2023/07/05 01:02:55;;;;;;;4.95;2.88;;;16.10;99.90;;;;;;5014292;28;20036;-79
2023/07/05 01:05:22;;;;;;;2.83;2.47;;;16.10;99.90;;;;;;5013653;28;20037;-78
2023/07/05 01:07:48;;;;;;;3.92;2.80;;;16.00;99.90;;;;;;5014456;28;20068;-78
2023/07/05 01:10:20;;;;;;;3.65;3.05;;;16.10;99.90;;;;;;5014245;28;20061;-78
2023/07/05 01:12:49;;;;;;;7.13;3.30;;;16.10;99.90;;;;;;5014438;28;20076;-77
2023/07/05 01:15:32;;;;;;;4.85;2.58;;;16.10;99.90;;;;;;5012874;28;20026;-78
2023/07/05 01:18:45;;;;;;;4.82;3.00;;;16.00;99.90;;;;;;5013655;28;20022;-78
2023/07/05 01:21:43;;;;;;;4.70;3.08;;;16.00;99.90;;;;;;4980500;28;20037;-78
2023/07/05 01:24:24;;;;;;;3.63;2.50;;;16.00;99.90;;;;;;5012467;28;20026;-78
2023/07/05 01:26:59;;;;;;;3.13;1.90;;;16.00;99.90;;;;;;5012672;28;20022;-78
2023/07/05 01:29:49;;;;;;;5.13;3.20;;;16.00;99.90;;;;;;5012616;28;20026;-78
2023/07/05 01:32:43;;;;;;;5.05;2.20;;;15.90;99.90;;;;;;5014144;28;20018;-78
2023/07/05 01:35:18;;;;;;;2.92;2.10;;;15.90;99.90;;;;;;5014066;28;20025;-78
2023/07/05 01:37:45;;;;;;;4.32;2.88;;;15.80;99.90;;;;;;5014067;28;20022;-77
2023/07/05 01:40:31;;;;;;;4.45;2.60;;;15.80;99.90;;;;;;5012917;28;20026;-77
2023/07/05 01:43:00;;;;;;;2.67;2.38;;;15.80;99.90;;;;;;4992633;28;20046;-77
2023/07/05 01:45:44;;;;;;;5.22;2.17;;;15.80;99.90;;;;;;5011914;28;20487;-77
2023/07/05 01:48:31;;;;;;;2.70;2.20;;;15.90;99.90;;;;;;5012002;28;20029;-78
2023/07/05 01:51:10;;;;;;;3.25;2.50;;;15.90;99.90;;;;;;5011185;28;20103;-77
2023/07/05 01:53:54;;;;;;;3.67;2.60;;;15.80;99.90;;;;;;5013126;28;20025;-77
2023/07/05 01:56:30;;;;;;;3.28;1.98;;;15.70;99.90;;;;;;5011937;28;20018;-77
2023/07/05 01:58:58;;;;;;;6.60;2.65;;;15.70;99.90;;;;;;5012298;28;20029;-77
2023/07/05 02:01:27;;;;;;;4.88;2.60;;;15.60;99.90;;;;;;5012238;28;20026;-78
2023/07/05 02:03:53;;;;;;;4.45;2.72;;;15.70;99.90;;;;;;5011884;28;20040;-77
2023/07/05 02:06:20;;;;;;;6.03;2.65;;;15.70;99.90;;;;;;5012777;28;20505;-77
2023/07/05 02:08:50;;;;;;;5.25;3.05;;;15.80;99.90;;;;;;5012539;28;20437;-77
2023/07/05 02:11:15;;;;;;;5.03;2.63;;;15.70;99.90;;;;;;5012949;28;20022;-77
2023/07/05 02:13:41;;;;;;;4.13;2.90;;;15.60;99.90;;;;;;5011519;28;20146;-77
2023/07/05 02:16:07;;;;;;;4.78;2.25;;;15.50;99.90;;;;;;5012556;28;20157;-78
2023/07/05 02:18:33;;;;;;;3.78;2.75;;;15.40;99.90;;;;;;5011817;28;20457;-78
2023/07/05 02:20:58;;;;;;;7.68;2.53;;;15.40;99.90;;;;;;5012649;28;20033;-77
2023/07/05 02:23:24;;;;;;;5.28;3.40;;;15.40;99.90;;;;;;5011108;28;20030;-78
2023/07/05 02:25:51;;;;;;;5.05;2.72;;;15.40;99.90;;;;;;5011000;28;20030;-77
2023/07/05 02:28:17;;;;;;;5.60;3.03;;;15.40;99.90;;;;;;5011106;28;20026;-78
2023/07/05 02:30:43;;;;;;;5.63;2.72;;;15.30;99.90;;;;;;5012573;28;20026;-77
2023/07/05 02:33:08;;;;;;;6.68;2.47;;;15.30;99.90;;;;;;5011338;28;20475;-77
2023/07/05 02:35:38;;;;;;;4.57;3.20;;;15.30;99.90;;;;;;5011248;28;20022;-77
2023/07/05 02:38:05;;;;;;;5.22;2.65;;;15.30;99.90;;;;;;5012248;28;20483;-78
2023/07/05 02:40:31;;;;;;;3.72;2.30;;;15.30;99.90;;;;;;5011366;28;20033;-77
2023/07/05 02:43:00;;;;;;;6.95;2.45;;;15.30;99.90;;;;;;5012507;28;20076;-78
2023/07/05 02:45:29;;;;;;;4.30;1.80;;;15.20;99.90;;;;;;5010879;28;20033;-77
2023/07/05 02:47:55;;;;;;;6.20;2.67;;;15.20;99.90;;;;;;5012526;28;20033;-77
2023/07/05 02:50:21;;;;;;;11.13;3.80;;;15.20;99.90;;;;;;5011091;28;20380;-77
2023/07/05 02:52:47;;;;;;;8.98;3.08;;;15.20;99.90;;;;;;5012442;28;20025;-77
2023/07/05 02:55:13;;;;;;;7.97;4.07;;;15.20;99.90;;;;;;5012376;28;20022;-77
2023/07/05 02:57:38;;;;;;;10.95;3.70;;;15.20;99.90;;;;;;5012149;28;20112;-78
2023/07/05 03:00:06;;;;;;;20.13;4.75;;;15.20;99.90;;;;;;5010946;28;20025;-78
2023/07/05 03:02:32;;;;;;;11.55;3.60;;;15.20;99.90;;;;;;5013770;28;20022;-77
2023/07/05 03:04:58;;;;;;;9.50;3.35;;;15.20;99.90;;;;;;5015492;28;20045;-77
2023/07/05 03:07:23;;;;;;;8.25;3.45;;;15.20;99.90;;;;;;5015924;28;20033;-77
2023/07/05 03:09:49;;;;;;;6.30;3.28;;;15.20;99.90;;;;;;5014700;28;20490;-77
2023/07/05 03:12:15;;;;;;;5.32;3.42;;;15.30;99.90;;;;;;5016058;28;20040;-77
2023/07/05 03:14:41;;;;;;;5.63;3.38;;;15.30;99.90;;;;;;5015629;28;20028;-77
2023/07/05 03:17:07;;;;;;;8.30;4.32;;;15.40;99.90;;;;;;5015628;28;20025;-77
2023/07/05 03:19:33;;;;;;;2.78;2.17;;;15.40;99.90;;;;;;5014312;28;20033;-77
2023/07/05 03:21:59;;;;;;;2.97;2.22;;;15.40;99.90;;;;;;5015927;28;20030;-77
2023/07/05 03:24:25;;;;;;;2.72;2.35;;;15.30;99.90;;;;;;5014609;28;20026;-77
2023/07/05 03:26:52;;;;;;;10.05;2.33;;;15.30;99.90;;;;;;5014658;28;20037;-77
2023/07/05 03:29:17;;;;;;;2.50;2.13;;;15.40;99.90;;;;;;5014284;28;20026;-77
2023/07/05 03:31:43;;;;;;;4.60;2.33;;;15.30;99.90;;;;;;5014785;28;20399;-77
2023/07/05 03:34:09;;;;;;;3.42;2.47;;;15.40;99.90;;;;;;5014512;28;20117;-77
2023/07/05 03:36:35;;;;;;;2.65;2.38;;;15.40;99.90;;;;;;5014378;28;20113;-78
2023/07/05 03:39:01;;;;;;;7.00;3.45;;;15.40;99.90;;;;;;5013968;28;20451;-77
2023/07/05 03:41:26;;;;;;;7.25;2.67;;;15.50;99.90;;;;;;5015751;28;20077;-77
2023/07/05 03:44:02;;;;;;;10.43;3.25;;;15.40;99.90;;;;;;5014433;28;20542;-77
2023/07/05 03:46:29;;;;;;;7.60;3.13;;;15.40;99.90;;;;;;5015477;28;20064;-77
2023/07/05 03:48:54;;;;;;;9.05;3.35;;;15.40;99.90;;;;;;5014238;28;20018;-77
2023/07/05 03:51:22;;;;;;;5.10;2.97;;;15.50;99.90;;;;;;5015406;28;20076;-77
2023/07/05 03:53:49;;;;;;;4.60;3.20;;;15.50;99.90;;;;;;5014028;28;20022;-77
2023/07/05 03:56:16;;;;;;;5.80;3.30;;;15.50;99.90;;;;;;5015401;28;20022;-78
2023/07/05 03:58:42;;;;;;;10.05;3.10;;;15.50;99.90;;;;;;5014555;28;20109;-78
2023/07/05 04:01:17;;;;;;;3.67;3.05;;;15.60;99.90;;;;;;5014790;28;20034;-77
2023/07/05 04:03:45;;;;;;;3.95;2.63;;;15.70;99.90;;;;;;5014099;28;20026;-77
2023/07/05 04:06:11;;;;;;;6.47;3.17;;;15.70;99.90;;;;;;5014063;28;20038;-77
2023/07/05 04:08:37;;;;;;;7.43;4.32;;;15.80;99.90;;;;;;5015024;28;20022;-78
2023/07/05 04:11:03;;;;;;;5.15;3.00;;;15.90;99.90;;;;;;5014907;28;20026;-78
2023/07/05 04:13:29;;;;;;;9.15;3.05;;;15.90;99.90;;;;;;5014831;28;20088;-79
2023/07/05 04:16:02;;;;;;;4.35;3.17;;;16.00;99.90;;;;;;5014626;28;20026;-78
2023/07/05 04:18:29;;;;;;;8.70;3.35;;;16.10;99.90;;;;;;5014574;28;20053;-79
2023/07/05 04:20:55;;;;;;;4.63;3.53;;;16.10;99.90;;;;;;5014053;28;20026;-78
2023/07/05 04:23:21;;;;;;;9.00;3.60;;;16.20;99.90;;;;;;5014941;28;20041;-77
2023/07/05 04:25:46;;;;;;;5.90;3.83;;;16.50;99.90;;;;;;5015104;28;20033;-77
2023/07/05 04:28:12;;;;;;;4.85;3.53;;;16.60;99.90;;;;;;5014019;28;20026;-79
2023/07/05 04:30:37;;;;;;;8.65;3.17;;;16.60;99.90;;;;;;5013795;28;20083;-78
2023/07/05 04:33:03;;;;;;;5.20;3.65;;;16.50;99.90;;;;;;5015300;28;20029;-79
2023/07/05 04:35:30;;;;;;;5.28;3.42;;;16.60;99.90;;;;;;5014912;28;20089;-77
2023/07/05 04:37:56;;;;;;;6.43;3.03;;;16.60;99.90;;;;;;5013737;28;20026;-78
2023/07/05 04:40:22;;;;;;;4.95;3.08;;;16.60;99.90;;;;;;5015037;28;20022;-78
2023/07/05 04:42:47;;;;;;;4.90;3.97;;;16.60;99.90;;;;;;5015137;28;20030;-78
2023/07/05 04:45:15;;;;;;;6.78;3.80;;;16.50;99.90;;;;;;5013787;28;20022;-78
2023/07/05 04:47:41;;;;;;;8.35;4.15;;;16.50;99.90;;;;;;5014815;28;20017;-77
2023/07/05 04:50:07;;;;;;;10.02;4.45;;;16.70;99.90;;;;;;5014674;28;20080;-78
2023/07/05 04:52:32;;;;;;;8.15;4.13;;;16.60;99.90;;;;;;5013813;28;20014;-78
2023/07/05 04:54:58;;;;;;;12.70;6.00;;;16.50;99.90;;;;;;5014360;28;20033;-78
2023/07/05 04:57:23;;;;;;;7.47;4.30;;;16.60;99.90;;;;;;5013392;28;20092;-78
2023/07/05 04:59:51;;;;;;;7.28;4.60;;;16.70;99.90;;;;;;5013329;28;20030;-77
2023/07/05 05:02:18;;;;;;;6.15;4.18;;;16.70;99.90;;;;;;5014433;28;20021;-79
2023/07/05 05:04:44;;;;;;;7.28;4.50;;;16.70;99.90;;;;;;5014287;28;20022;-78
2023/07/05 05:07:09;;;;;;;8.25;5.15;;;16.80;99.90;;;;;;5015850;28;20033;-79
2023/07/05 05:09:35;;;;;;;4.75;3.63;;;17.10;99.90;;;;;;5013329;28;20149;-76
2023/07/05 05:12:01;;;;;;;13.23;6.35;;;18.30;99.90;;;;;;5013092;28;20052;-76
2023/07/05 05:14:26;;;;;;;8.20;6.53;;;19.20;99.90;;;;;;5015972;28;20061;-77
2023/07/05 05:16:52;;;;;;;9.63;5.05;;;19.90;99.90;;;;;;5016551;28;20032;-77
2023/07/05 05:19:17;;;;;;;6.03;4.60;;;20.30;99.90;;;;;;5014037;28;20038;-76
2023/07/05 05:21:43;;;;;;;10.00;4.75;;;20.20;99.90;;;;;;5012947;28;20033;-76
2023/07/05 05:24:09;;;;;;;6.22;3.72;;;20.00;99.90;;;;;;5013301;28;20302;-76
2023/07/05 05:26:34;;;;;;;6.53;3.28;;;20.20;99.90;;;;;;5011927;28;20437;-77
2023/07/05 05:29:00;;;;;;;5.45;3.90;;;20.30;99.90;;;;;;5011753;28;20030;-76
2023/07/05 05:31:26;;;;;;;7.18;3.85;;;20.40;99.90;;;;;;5012272;28;20483;-77
2023/07/05 05:33:51;;;;;;;4.15;3.13;;;20.40;99.90;;;;;;5013085;28;20030;-76
2023/07/05 05:36:17;;;;;;;4.43;3.35;;;20.30;99.90;;;;;;5011669;28;20076;-76
2023/07/05 05:38:42;;;;;;;4.15;2.83;;;20.40;99.90;;;;;;5014080;28;20495;-76
2023/07/05 05:41:10;;;;;;;4.22;3.08;;;20.40;99.90;;;;;;5012767;28;20044;-77
2023/07/05 05:43:39;;;;;;;3.22;2.75;;;20.70;99.90;;;;;;5014461;28;20041;-76
2023/07/05 05:46:06;;;;;;;4.28;3.13;;;20.70;99.90;;;;;;5014254;28;20569;-76
2023/07/05 05:48:32;;;;;;;4.70;2.58;;;20.80;99.90;;;;;;5013949;28;20030;-76
2023/07/05 05:50:57;;;;;;;6.63;2.70;;;20.90;99.90;;;;;;5013018;28;20566;-76
2023/07/05 05:53:23;;;;;;;3.53;2.55;;;20.80;99.90;;;;;;5013399;28;20103;-76
2023/07/05 05:55:49;;;;;;;3.15;2.53;;;20.90;99.90;;;;;;5011791;28;20029;-77
2023/07/05 05:58:14;;;;;;;3.92;2.97;;;20.80;99.90;;;;;;5015356;28;20094;-76
2023/07/05 06:00:40;;;;;;;3.92;3.05;;;20.90;99.90;;;;;;5014719;28;20030;-77
2023/07/05 06:03:06;;;;;;;5.88;2.95;;;20.90;99.90;;;;;;5012536;28;20048;-77
2023/07/05 06:05:33;;;;;;;3.33;2.33;;;21.20;99.90;;;;;;5012946;28;20081;-77
2023/07/05 06:07:59;;;;;;;3.17;2.58;;;21.20;99.90;;;;;;5012419;28;20034;-77
2023/07/05 06:10:24;;;;;;;4.72;2.50;;;21.20;99.90;;;;;;5011273;28;20033;-76
2023/07/05 06:12:50;;;;;;;6.30;2.88;;;21.50;99.90;;;;;;5011734;28;20025;-76
2023/07/05 06:15:16;;;;;;;5.47;3.25;;;21.60;99.90;;;;;;5013345;28;20034;-77
2023/07/05 06:17:41;;;;;;;5.40;2.85;;;21.70;99.90;;;;;;5011617;28;20505;-76
2023/07/05 06:20:10;;;;;;;4.18;2.55;;;21.70;99.90;;;;;;5015515;28;20080;-77
2023/07/05 06:22:37;;;;;;;2.58;1.90;;;21.80;99.90;;;;;;5013442;28;20030;-77
2023/07/05 06:25:03;;;;;;;4.75;2.67;;;21.90;99.90;;;;;;5014599;28;20037;-77
2023/07/05 06:27:29;;;;;;;3.80;2.42;;;22.10;99.90;;;;;;5012585;28;20026;-76
2023/07/05 06:29:55;;;;;;;8.02;3.08;;;22.30;99.90;;;;;;5012332;28;20084;-77
2023/07/05 06:32:21;;;;;;;3.22;2.60;;;22.40;99.90;;;;;;5012308;28;20018;-76
2023/07/05 06:34:47;;;;;;;2.63;1.73;;;22.50;99.90;;;;;;5012390;28;20014;-77
2023/07/05 06:37:13;;;;;;;4.07;2.53;;;22.60;99.90;;;;;;5021878;28;20028;-78
2023/07/05 06:39:40;;;;;;;2.70;2.08;;;22.40;99.90;;;;;;5022716;28;20120;-78
2023/07/05 06:42:06;;;;;;;5.05;2.25;;;22.30;99.90;;;;;;5023244;28;20033;-79
2023/07/05 06:44:32;;;;;;;4.50;2.15;;;22.30;99.90;;;;;;5021384;28;20026;-78
2023/07/05 06:46:57;;;;;;;7.32;2.33;;;22.40;99.90;;;;;;5023587;28;20022;-78
2023/07/05 06:49:24;;;;;;;2.70;2.22;;;22.30;99.90;;;;;;5023899;28;20584;-78
2023/07/05 06:51:50;;;;;;;2.88;2.08;;;22.50;99.90;;;;;;5022008;28;20478;-78
2023/07/05 06:54:15;;;;;;;2.80;2.50;;;22.70;99.90;;;;;;5022539;28;20029;-79
2023/07/05 06:56:41;;;;;;;2.53;1.95;;;22.60;99.90;;;;;;5023539;28;20026;-78
2023/07/05 06:59:07;;;;;;;3.25;2.42;;;22.80;99.90;;;;;;5023633;28;20025;-79
2023/07/05 07:01:32;;;;;;;3.20;2.22;;;22.80;99.90;;;;;;5023583;28;20049;-78
2023/07/05 07:03:58;;;;;;;4.65;2.50;;;23.00;99.90;;;;;;5022283;28;20359;-78
2023/07/05 07:06:24;;;;;;;3.90;2.83;;;23.30;99.90;;;;;;5022832;28;20049;-78
2023/07/05 07:08:49;;;;;;;4.93;2.47;;;23.40;99.90;;;;;;5024877;28;20068;-78
2023/07/05 07:11:15;;;;;;;3.17;2.30;;;23.70;99.90;;;;;;5024210;28;20022;-78
2023/07/05 07:13:41;;;;;;;2.50;2.13;;;23.80;99.90;;;;;;5022681;28;20037;-78
2023/07/05 07:16:09;;;;;;;5.22;2.38;;;23.90;99.90;;;;;;5021767;28;20026;-78
2023/07/05 07:18:37;;;;;;;4.32;2.53;;;23.80;99.90;;;;;;5024600;28;20026;-79
2023/07/05 07:21:06;;;;;;;8.10;2.35;;;23.90;99.90;;;;;;5021895;28;20022;-78
2023/07/05 07:23:32;;;;;;;3.15;2.20;;;24.10;99.90;;;;;;5024015;28;20201;-79
2023/07/05 07:26:00;;;;;;;4.38;2.78;;;24.10;99.90;;;;;;5024379;28;20144;-78
2023/07/05 07:28:26;;;;;;;3.45;2.40;;;24.20;99.90;;;;;;5024071;28;20364;-78
2023/07/05 07:30:52;;;;;;;3.75;2.35;;;24.50;99.90;;;;;;5023232;28;20076;-78
2023/07/05 07:33:18;;;;;;;2.17;1.80;;;24.60;99.90;;;;;;5023074;28;20022;-79
2023/07/05 07:35:44;;;;;;;2.97;2.20;;;24.80;99.90;;;;;;5021901;28;20397;-78
2023/07/05 07:38:09;;;;;;;2.38;2.17;;;25.00;98.40;;;;;;5022473;28;20461;-78
2023/07/05 07:40:36;;;;;;;3.30;2.58;;;24.90;96.90;;;;;;5023445;28;20113;-77
2023/07/05 07:43:05;;;;;;;3.10;2.78;;;25.00;96.30;;;;;;5024080;28;20097;-78
2023/07/05 07:45:31;;;;;;;5.93;1.83;;;24.90;97.50;;;;;;5022957;28;20022;-78
2023/07/05 07:47:56;;;;;;;3.17;2.20;;;25.20;96.50;;;;;;5020057;28;20478;-78
2023/07/05 07:50:22;;;;;;;3.17;1.70;;;25.20;93.80;;;;;;5018928;28;20088;-78
2023/07/05 07:52:48;;;;;;;2.33;1.70;;;25.30;94.20;;;;;;5021265;28;20030;-79
2023/07/05 07:55:13;;;;;;;3.58;1.98;;;25.50;92.10;;;;;;5022402;28;20075;-79
2023/07/05 07:57:41;;;;;;;3.55;1.83;;;25.70;92.80;;;;;;5021785;28;20389;-78
2023/07/05 08:00:10;;;;;;;2.85;2.08;;;25.70;90.90;;;;;;5020591;28;20026;-78
2023/07/05 08:02:36;;;;;;;5.55;1.80;;;25.70;91.40;;;;;;5023032;28;20025;-78
2023/07/05 08:05:03;;;;;;;4.05;2.38;;;25.60;92.30;;;;;;5021322;28;20040;-78
2023/07/05 08:07:31;;;;;;;5.82;2.00;;;25.70;91.90;;;;;;5014906;28;20388;-77
2023/07/05 08:09:57;;;;;;;3.90;1.67;;;25.70;92.00;;;;;;5014821;28;20038;-77
2023/07/05 08:12:23;;;;;;;5.90;2.20;;;25.70;92.30;;;;;;5014673;28;20438;-78
2023/07/05 08:14:49;;;;;;;3.95;2.00;;;25.90;91.80;;;;;;5015560;28;20030;-77
2023/07/05 08:17:15;;;;;;;3.78;2.05;;;26.00;92.30;;;;;;5017464;28;20491;-78
2023/07/05 08:19:41;;;;;;;5.63;2.08;;;26.10;91.70;;;;;;5016798;28;20030;-78
2023/07/05 08:22:06;;;;;;;2.00;1.80;;;26.20;92.50;;;;;;5016750;28;20025;-77
2023/07/05 08:24:32;;;;;;;5.40;1.90;;;26.10;90.40;;;;;;5016114;28;20033;-78
2023/07/05 08:26:59;;;;;;;5.85;2.38;;;26.10;91.20;;;;;;5014165;28;20037;-77
2023/07/05 08:29:25;;;;;;;4.88;2.00;;;26.00;91.60;;;;;;5014545;28;20056;-77
2023/07/05 08:31:51;;;;;;;3.10;2.30;;;26.10;91.80;;;;;;5015161;28;20557;-76
2023/07/05 08:34:17;;;;;;;2.58;2.33;;;26.20;91.40;;;;;;5013352;28;20513;-77
2023/07/05 08:36:43;;;;;;;4.88;2.05;;;26.20;91.30;;;;;;5015921;28;20022;-76
2023/07/05 08:39:11;;;;;;;2.13;1.92;;;26.30;92.30;;;;;;5014084;28;20034;-75
2023/07/05 08:41:45;;;;;;;2.75;2.13;;;26.50;91.40;;;;;;5014012;28;20018;-75
2023/07/05 08:44:29;;;;;;;3.72;2.28;;;26.50;91.00;;;;;;5013807;28;20030;-76
2023/07/05 08:46:57;;;;;;;6.07;2.15;;;26.40;90.90;;;;;;5013910;28;20069;-75
2023/07/05 08:49:30;;;;;;;2.20;2.00;;;26.40;90.70;;;;;;5013662;28;20109;-75
2023/07/05 08:51:56;;;;;;;2.97;1.98;;;26.30;90.40;;;;;;5013875;28;20461;-75
2023/07/05 08:54:22;;;;;;;2.85;2.17;;;26.50;90.20;;;;;;5013571;28;20026;-76
2023/07/05 08:56:53;;;;;;;5.65;2.35;;;26.70;90.60;;;;;;5013906;28;20042;-76
2023/07/05 08:59:28;;;;;;;2.15;1.67;;;26.90;89.90;;;;;;5012342;28;20060;-76
2023/07/05 09:01:56;;;;;;;4.27;2.20;;;27.10;90.40;;;;;;5012848;28;20025;-76
2023/07/05 09:04:25;;;;;;;3.38;1.95;;;27.20;90.50;;;;;;5013616;28;20310;-75
2023/07/05 09:07:01;;;;;;;3.53;2.10;;;27.30;87.80;;;;;;5012984;28;20105;-76
2023/07/05 09:10:04;;;;;;;5.68;1.98;;;27.00;87.80;;;;;;5012210;28;20483;-76
2023/07/05 09:12:54;;;;;;;4.38;1.75;;;26.90;89.60;;;;;;5012252;28;20642;-76
2023/07/05 09:15:29;;;;;;;3.03;2.33;;;26.60;89.00;;;;;;5013340;28;20505;-76
2023/07/05 09:18:27;;;;;;;3.03;2.13;;;26.70;89.90;;;;;;5013512;28;20026;-76
2023/07/05 09:21:08;;;;;;;4.53;2.17;;;26.80;88.80;;;;;;5012271;28;20101;-77
2023/07/05 09:23:46;;;;;;;2.45;1.73;;;27.00;88.30;;;;;;5013577;28;20021;-76
2023/07/05 09:26:28;;;;;;;7.22;2.05;;;27.10;85.40;;;;;;5012295;28;20036;-76
2023/07/05 09:29:13;;;;;;;4.15;2.22;;;27.10;85.40;;;;;;5012022;28;20108;-76
2023/07/05 09:31:39;;;;;;;3.70;1.92;;;27.00;84.60;;;;;;5012223;28;20493;-77
2023/07/05 09:34:31;;;;;;;4.35;1.67;;;27.00;87.50;;;;;;5012069;28;20096;-76
2023/07/05 09:36:58;;;;;;;2.38;1.90;;;27.00;83.70;;;;;;5012178;28;20049;-76
2023/07/05 09:39:51;;;;;;;3.63;2.20;;;26.90;86.20;;;;;;5011555;28;20058;-76
2023/07/05 09:42:41;;;;;;;4.07;1.88;;;26.80;87.00;;;;;;5013404;28;20033;-76
2023/07/05 09:45:14;;;;;;;3.22;1.73;;;26.90;88.10;;;;;;5012725;28;20491;-75
2023/07/05 09:47:41;;;;;;;1.88;1.73;;;27.00;86.20;;;;;;5011397;28;20041;-76
2023/07/05 09:50:28;;;;;;;1.70;1.60;;;27.20;85.40;;;;;;5011947;28;20030;-76
2023/07/05 09:53:40;;;;;;;6.32;2.08;;;27.50;82.50;;;;;;5012125;28;20033;-74
2023/07/05 09:56:15;;;;;;;3.63;1.80;;;27.60;80.50;;;;;;5011327;28;20018;-75
2023/07/05 09:58:44;;;;;;;2.47;1.60;;;27.50;79.10;;;;;;5014189;28;20018;-76
2023/07/05 10:01:21;;;;;;;2.13;1.83;;;27.50;78.30;;;;;;5012521;28;20026;-75
2023/07/05 10:04:00;;;;;;;2.28;1.67;;;27.50;78.40;;;;;;5012238;28;20026;-76
2023/07/05 10:06:28;;;;;;;3.22;2.83;;;27.40;80.60;;;;;;5009567;28;20149;-75
2023/07/05 10:08:55;;;;;;;3.90;2.85;;;27.20;81.40;;;;;;5011967;28;20029;-75
2023/07/05 10:11:33;;;;;;;2.85;2.25;;;27.10;80.40;;;;;;5011627;28;20033;-75
2023/07/05 10:14:10;;;;;;;2.70;1.88;;;27.20;82.40;;;;;;5012213;28;20025;-76
2023/07/05 10:16:45;;;;;;;3.05;2.13;;;27.10;81.30;;;;;;5012244;28;20014;-76
2023/07/05 10:19:31;;;;;;;2.10;1.90;;;27.20;81.00;;;;;;5012364;28;20018;-76
2023/07/05 10:22:13;;;;;;;2.40;1.52;;;27.50;80.10;;;;;;5011246;28;20022;-76
2023/07/05 10:24:45;;;;;;;2.45;1.73;;;27.80;75.70;;;;;;5012225;28;20037;-76
2023/07/05 10:27:41;;;;;;;4.30;2.00;;;28.10;76.00;;;;;;5012136;28;20104;-77
2023/07/05 10:30:13;;;;;;;3.67;2.15;;;28.30;77.30;;;;;;5005536;28;20109;-76
2023/07/05 10:32:40;;;;;;;2.47;1.13;;;28.50;76.20;;;;;;5013445;28;20026;-77
2023/07/05 10:35:26;;;;;;;3.25;1.63;;;28.20;75.50;;;;;;5011315;28;20080;-77
2023/07/05 10:37:53;;;;;;;1.65;1.55;;;28.20;75.70;;;;;;5013082;28;20026;-76
2023/07/05 10:40:21;;;;;;;2.50;2.20;;;28.30;74.50;;;;;;5011835;28;20038;-77
2023/07/05 10:42:54;;;;;;;3.15;1.88;;;28.40;72.00;;;;;;5011604;28;20026;-77
2023/07/05 10:45:22;;;;;;;2.80;1.77;;;28.30;74.40;;;;;;5012934;28;20177;-77
2023/07/05 10:47:52;;;;;;;1.90;1.67;;;28.40;73.40;;;;;;5012780;28;20025;-76
2023/07/05 10:50:26;;;;;;;4.75;2.05;;;28.40;70.00;;;;;;5012875;28;20033;-76
2023/07/05 10:53:06;;;;;;;6.65;1.85;;;28.40;73.60;;;;;;5013137;28;20042;-77
2023/07/05 10:56:13;;;;;;;4.28;2.05;;;28.60;75.50;;;;;;5012704;28;20022;-77
2023/07/05 10:58:53;;;;;;;2.28;1.77;;;28.60;71.90;;;;;;5007392;28;20053;-77
2023/07/05 11:01:24;;;;;;;2.50;1.90;;;28.70;72.40;;;;;;5012771;28;20344;-77
2023/07/05 11:03:53;;;;;;;1.98;1.77;;;28.50;70.90;;;;;;5012877;28;20033;-76
2023/07/05 11:06:19;;;;;;;2.08;1.88;;;28.70;77.30;;;;;;5013154;28;20034;-77
2023/07/05 11:08:45;;;;;;;2.00;1.80;;;28.70;72.60;;;;;;5013074;28;20083;-77
2023/07/05 11:11:30;;;;;;;2.05;1.67;;;28.60;71.10;;;;;;5012475;28;20197;-77
2023/07/05 11:14:00;;;;;;;3.67;1.95;;;28.50;73.50;;;;;;5012810;28;20491;-77
2023/07/05 11:16:27;;;;;;;2.72;2.15;;;28.20;72.50;;;;;;5012869;28;20438;-77
2023/07/05 11:19:06;;;;;;;1.70;1.55;;;28.30;74.20;;;;;;5011358;28;20046;-77
2023/07/05 11:21:44;;;;;;;2.63;1.90;;;28.30;75.40;;;;;;5011630;28;20029;-77
2023/07/05 11:24:31;;;;;;;2.13;1.63;;;28.50;74.20;;;;;;5016600;28;20028;-77
2023/07/05 11:26:58;;;;;;;2.33;1.73;;;28.60;75.20;;;;;;5016594;28;20025;-77
2023/07/05 11:29:27;;;;;;;4.00;1.67;;;28.80;71.40;;;;;;5015346;28;20022;-77
2023/07/05 11:31:53;;;;;;;3.25;1.58;;;28.80;70.10;;;;;;5016573;28;20057;-77
2023/07/05 11:34:21;;;;;;;3.20;2.00;;;28.60;74.10;;;;;;5016209;28;20108;-77
2023/07/05 11:37:00;;;;;;;4.45;2.00;;;28.60;69.60;;;;;;5016286;28;20021;-77
2023/07/05 11:39:33;;;;;;;3.92;2.00;;;28.50;70.60;;;;;;5014729;28;20394;-77
2023/07/05 11:42:22;;;;;;;2.25;1.60;;;28.80;73.60;;;;;;5014616;28;20030;-77
2023/07/05 11:45:03;;;;;;;2.72;1.90;;;28.60;70.70;;;;;;5014503;28;20025;-77
2023/07/05 11:47:34;;;;;;;3.10;1.85;;;28.30;72.70;;;;;;5016227;28;20026;-77
2023/07/05 11:50:13;;;;;;;3.50;1.60;;;28.70;76.00;;;;;;5016005;28;20022;-77
2023/07/05 11:52:43;;;;;;;2.47;1.50;;;28.70;72.50;;;;;;5016343;28;20411;-77
2023/07/05 11:55:40;;;;;;;5.50;1.75;;;28.80;71.00;;;;;;5015670;28;20025;-77
2023/07/05 11:58:12;;;;;;;6.53;2.40;;;28.40;71.40;;;;;;5014314;28;20037;-77
2023/07/05 12:00:44;;;;;;;1.90;1.70;;;28.60;71.90;;;;;;5016150;28;20025;-77
2023/07/05 12:03:19;;;;;;;1.95;1.83;;;28.70;72.70;;;;;;5016071;28;20041;-77
2023/07/05 12:05:54;;;;;;;2.47;1.60;;;28.70;71.50;;;;;;5014315;28;20113;-77
2023/07/05 12:08:31;;;;;;;1.63;1.42;;;28.80;69.00;;;;;;5015792;28;20068;-77
2023/07/05 12:10:58;;;;;;;2.45;1.80;;;28.80;66.50;;;;;;5014346;28;20116;-76
2023/07/05 12:13:26;;;;;;;2.22;1.83;;;28.60;69.40;;;;;;5015406;28;20026;-77
2023/07/05 12:15:55;;;;;;;5.15;2.30;;;28.70;70.10;;;;;;5015704;28;20026;-77
2023/07/05 12:18:22;;;;;;;7.53;1.95;;;28.60;71.40;;;;;;5014736;28;20462;-77
2023/07/05 12:20:52;;;;;;;2.58;1.77;;;28.70;69.00;;;;;;5014929;28;20109;-78
2023/07/05 12:23:19;;;;;;;3.00;1.88;;;29.10;68.20;;;;;;5013448;28;20081;-77
2023/07/05 12:25:52;;;;;;;1.58;1.48;;;29.20;65.50;;;;;;5013496;28;20124;-76
2023/07/05 12:28:26;;;;;;;4.10;1.73;;;28.80;69.50;;;;;;5014759;28;20279;-77
2023/07/05 12:30:59;;;;;;;2.67;1.83;;;28.80;71.20;;;;;;5014783;28;20031;-77
2023/07/05 12:33:28;;;;;;;2.78;1.90;;;28.90;68.20;;;;;;5013346;28;20013;-77
2023/07/05 12:36:15;;;;;;;11.27;2.35;;;29.00;68.40;;;;;;5013268;28;20026;-77
2023/07/05 12:38:44;;;;;;;2.92;1.80;;;29.20;68.80;;;;;;5015040;28;20025;-77
2023/07/05 12:41:24;;;;;;;2.25;1.60;;;29.00;68.10;;;;;;5015307;28;20029;-77
2023/07/05 12:43:59;;;;;;;2.28;1.70;;;29.20;68.50;;;;;;5015176;28;20069;-78
2023/07/05 12:46:27;;;;;;;2.15;1.73;;;29.30;67.50;;;;;;5014590;28;20108;-78
2023/07/05 12:48:53;;;;;;;2.85;2.20;;;29.40;69.30;;;;;;5014741;28;20042;-77
2023/07/05 12:51:22;;;;;;;3.35;2.05;;;29.40;65.30;;;;;;5014961;28;20065;-77
2023/07/05 12:53:49;;;;;;;2.60;1.95;;;29.20;67.40;;;;;;5015875;28;20014;-77
2023/07/05 12:56:22;;;;;;;2.55;1.92;;;29.20;69.40;;;;;;5014751;28;20083;-77
2023/07/05 12:58:54;;;;;;;3.65;2.63;;;29.20;67.70;;;;;;5014362;28;20080;-77
2023/07/05 13:01:31;;;;;;;2.45;1.70;;;29.10;70.40;;;;;;5014891;28;20032;-77